Time;durP1;ratioP1;P1;durP2;ratioP2;P2;SDS_P1;SDS_P2;PMS_P1;PMS_P2;Temp;Humidity;BMP_temperature;BMP_pressure;BME280_temperature;BME280_humidity;BME280_pressure;Samples;Min_cycle;Max_cycle;Signal;HPM_P1;HPM_P2
2021/04/29 00:01:35;;;;;;;14.07;5.78;;;13.70;99.90;;;;;;5048563;28;21385;-68
2021/04/29 00:04:01;;;;;;;12.20;6.43;;;13.50;99.90;;;;;;5046677;28;20052;-69
2021/04/29 00:06:28;;;;;;;13.00;5.40;;;13.40;99.90;;;;;;5049301;28;20448;-69
2021/04/29 00:08:54;;;;;;;13.07;5.82;;;13.30;99.90;;;;;;5044108;28;20052;-69
2021/04/29 00:11:20;;;;;;;;;;;13.20;99.90;;;;;;5044310;28;20056;-69
2021/04/29 00:13:48;;;;;;;9.85;5.68;;;13.20;99.90;;;;;;5046218;28;20042;-66
2021/04/29 00:16:14;;;;;;;10.93;5.68;;;13.20;99.90;;;;;;5042385;28;20052;-66
2021/04/29 00:18:41;;;;;;;10.20;5.35;;;13.20;99.90;;;;;;5042580;28;20059;-66
2021/04/29 00:21:07;;;;;;;;;;;13.10;99.90;;;;;;5046359;28;20090;-66
2021/04/29 00:23:34;;;;;;;10.30;5.82;;;13.10;99.90;;;;;;5042983;28;20002;-66
2021/04/29 00:26:00;;;;;;;11.20;5.22;;;13.10;99.90;;;;;;5041428;28;20078;-66
2021/04/29 00:28:26;;;;;;;;;;;13.10;99.90;;;;;;5043217;28;20169;-66
2021/04/29 00:30:54;;;;;;;10.90;6.13;;;13.10;99.90;;;;;;5044127;28;19968;-66
2021/04/29 00:33:20;;;;;;;11.50;6.20;;;13.10;99.90;;;;;;5046285;28;20084;-66
2021/04/29 00:35:47;;;;;;;9.88;5.35;;;13.10;99.90;;;;;;5043240;28;20494;-66
2021/04/29 00:38:15;;;;;;;13.43;6.18;;;13.00;99.90;;;;;;5044203;28;20083;-66
2021/04/29 00:40:42;;;;;;;11.80;6.25;;;13.00;99.90;;;;;;5043982;28;20052;-66
2021/04/29 00:43:10;;;;;;;11.00;5.97;;;13.10;99.90;;;;;;5043392;28;20438;-66
2021/04/29 00:45:37;;;;;;;11.50;6.10;;;13.10;99.90;;;;;;5042274;28;20063;-66
2021/04/29 00:48:05;;;;;;;11.15;5.80;;;13.00;99.90;;;;;;5045343;28;20067;-66
2021/04/29 00:50:32;;;;;;;12.02;5.63;;;13.00;99.90;;;;;;5047068;28;20063;-66
2021/04/29 00:52:58;;;;;;;15.18;6.13;;;12.90;99.90;;;;;;5043554;28;20109;-66
2021/04/29 00:55:25;;;;;;;11.82;6.45;;;13.00;99.90;;;;;;5019157;28;623142;-66
2021/04/29 00:57:51;;;;;;;11.82;6.07;;;12.90;99.90;;;;;;5039758;28;20684;-66
2021/04/29 01:00:19;;;;;;;12.70;5.88;;;13.00;99.90;;;;;;5043031;28;20078;-66
2021/04/29 01:02:50;;;;;;;12.18;6.00;;;13.00;99.90;;;;;;5041684;28;20091;-66
2021/04/29 01:05:22;;;;;;;12.00;6.13;;;13.00;99.90;;;;;;5036886;28;20131;-66
2021/04/29 01:07:54;;;;;;;9.00;5.82;;;13.00;99.90;;;;;;5037539;28;20056;-66
2021/04/29 01:10:27;;;;;;;11.43;5.95;;;13.00;99.90;;;;;;5037026;28;20435;-66
2021/04/29 01:13:02;;;;;;;10.35;5.75;;;13.00;99.90;;;;;;5040139;28;20075;-66
2021/04/29 01:15:29;;;;;;;12.27;6.30;;;13.10;99.90;;;;;;5039628;28;20582;-66
2021/04/29 01:17:56;;;;;;;13.77;6.10;;;13.20;99.90;;;;;;5039181;28;20048;-66
2021/04/29 01:20:30;;;;;;;10.75;5.15;;;13.20;99.90;;;;;;5041840;28;20084;-66
2021/04/29 01:23:08;;;;;;;9.70;5.65;;;13.20;99.90;;;;;;5041916;28;21515;-66
2021/04/29 01:25:37;;;;;;;10.38;5.55;;;13.10;99.90;;;;;;5038402;28;20091;-66
2021/04/29 01:28:05;;;;;;;10.57;5.28;;;13.20;99.90;;;;;;5039966;28;20145;-66
2021/04/29 01:30:32;;;;;;;9.73;5.32;;;13.20;99.90;;;;;;5038465;28;20056;-66
2021/04/29 01:32:59;;;;;;;10.43;5.28;;;13.20;99.90;;;;;;5043177;28;20075;-66
2021/04/29 01:35:26;;;;;;;9.93;5.70;;;13.20;99.90;;;;;;5040248;28;20133;-66
2021/04/29 01:37:54;;;;;;;11.65;6.10;;;13.20;99.90;;;;;;5038890;28;20044;-66
2021/04/29 01:40:21;;;;;;;12.02;5.78;;;13.20;99.90;;;;;;5041066;28;20090;-66
2021/04/29 01:42:48;;;;;;;12.02;6.28;;;13.20;99.90;;;;;;5045057;28;20044;-66
2021/04/29 01:45:16;;;;;;;11.75;6.85;;;13.20;99.90;;;;;;5041145;28;20048;-66
2021/04/29 01:47:43;;;;;;;9.60;6.10;;;13.30;99.90;;;;;;5039474;28;20135;-66
2021/04/29 01:50:11;;;;;;;11.63;6.63;;;13.20;99.90;;;;;;5040925;28;20048;-66
2021/04/29 01:52:38;;;;;;;11.23;6.97;;;13.20;99.90;;;;;;5038194;28;20077;-66
2021/04/29 01:55:07;;;;;;;16.27;7.10;;;13.20;99.90;;;;;;5043073;28;20061;-66
2021/04/29 01:57:34;;;;;;;14.00;7.80;;;13.30;99.90;;;;;;5043184;28;20050;-66
2021/04/29 02:00:00;;;;;;;11.82;6.90;;;13.30;99.90;;;;;;5042665;28;20056;-67
2021/04/29 02:02:28;;;;;;;12.10;7.03;;;13.30;99.90;;;;;;5040369;28;20049;-66
2021/04/29 02:04:54;;;;;;;13.55;7.30;;;13.20;99.90;;;;;;5041393;28;20428;-66
2021/04/29 02:07:21;;;;;;;11.20;6.75;;;13.20;99.90;;;;;;5041410;28;20079;-66
2021/04/29 02:09:47;;;;;;;;;;;13.20;99.90;;;;;;5043175;28;20052;-66
2021/04/29 02:12:13;;;;;;;11.35;6.38;;;13.20;99.90;;;;;;5041357;28;20007;-66
2021/04/29 02:14:46;;;;;;;10.95;6.32;;;13.20;99.90;;;;;;5043405;28;20095;-66
2021/04/29 02:17:18;;;;;;;10.45;6.75;;;13.20;99.90;;;;;;5040853;28;20051;-66
2021/04/29 02:19:47;;;;;;;11.20;7.18;;;13.30;99.90;;;;;;5042513;28;20063;-66
2021/04/29 02:22:16;;;;;;;12.02;7.47;;;13.10;99.90;;;;;;5039738;28;20144;-66
2021/04/29 02:24:45;;;;;;;13.52;7.63;;;13.10;99.90;;;;;;5048397;28;20049;-66
2021/04/29 02:27:12;;;;;;;12.63;7.63;;;13.00;99.90;;;;;;5038730;28;20055;-66
2021/04/29 02:29:42;;;;;;;14.68;8.55;;;12.90;99.90;;;;;;5041281;28;20056;-66
2021/04/29 02:32:09;;;;;;;17.90;8.07;;;12.90;99.90;;;;;;5040193;28;20489;-66
2021/04/29 02:34:36;;;;;;;14.05;8.23;;;12.70;99.90;;;;;;5039875;28;20079;-66
2021/04/29 02:37:03;;;;;;;14.00;8.90;;;12.60;99.90;;;;;;5030964;28;20044;-66
2021/04/29 02:39:31;;;;;;;11.02;7.65;;;12.60;99.90;;;;;;5038588;28;20534;-66
2021/04/29 02:41:58;;;;;;;14.18;7.78;;;12.60;99.90;;;;;;5040775;28;20087;-66
2021/04/29 02:44:25;;;;;;;14.15;7.78;;;12.70;99.90;;;;;;5041639;28;20508;-67
2021/04/29 02:46:52;;;;;;;13.55;7.93;;;12.70;99.90;;;;;;5041170;28;20091;-66
2021/04/29 02:49:19;;;;;;;13.27;8.25;;;12.70;99.90;;;;;;5043202;28;20500;-66
2021/04/29 02:51:46;;;;;;;14.80;8.57;;;12.70;99.90;;;;;;5042964;28;20101;-66
2021/04/29 02:54:13;;;;;;;16.55;8.15;;;12.70;99.90;;;;;;5040133;28;20587;-66
2021/04/29 02:56:40;;;;;;;15.70;9.43;;;12.80;99.90;;;;;;5040398;28;20056;-66
2021/04/29 02:59:08;;;;;;;14.40;8.60;;;12.80;99.90;;;;;;5040806;28;20165;-66
2021/04/29 03:01:35;;;;;;;14.70;9.00;;;12.70;99.90;;;;;;5042054;28;20103;-66
2021/04/29 03:04:04;;;;;;;13.73;9.18;;;12.70;99.90;;;;;;5038960;28;20113;-66
2021/04/29 03:06:31;;;;;;;18.55;9.45;;;12.70;99.90;;;;;;5042785;28;20091;-66
2021/04/29 03:08:58;;;;;;;18.98;9.20;;;12.70;99.90;;;;;;5043352;28;20048;-66
2021/04/29 03:11:25;;;;;;;;;;;12.70;99.90;;;;;;5043096;28;20095;-66
2021/04/29 03:13:51;;;;;;;13.10;8.93;;;12.60;99.90;;;;;;5042250;28;19947;-66
2021/04/29 03:16:18;;;;;;;15.80;9.05;;;12.60;99.90;;;;;;5042416;28;20588;-66
2021/04/29 03:18:44;;;;;;;13.32;8.52;;;12.50;99.90;;;;;;5041114;28;20051;-66
2021/04/29 03:21:11;;;;;;;;;;;12.50;99.90;;;;;;5040950;28;20459;-66
2021/04/29 03:23:38;;;;;;;10.18;6.95;;;12.50;99.90;;;;;;5041193;28;20379;-66
2021/04/29 03:26:04;;;;;;;16.55;8.93;;;12.50;99.90;;;;;;5041237;28;20060;-66
2021/04/29 03:28:32;;;;;;;16.92;9.05;;;12.50;99.90;;;;;;5042622;28;20056;-66
2021/04/29 03:30:58;;;;;;;14.70;8.73;;;12.50;99.90;;;;;;5041683;28;20548;-66
2021/04/29 03:33:25;;;;;;;;;;;12.50;99.90;;;;;;5042824;28;20075;-66
2021/04/29 03:35:51;;;;;;;15.75;9.10;;;12.60;99.90;;;;;;5042100;28;19978;-66
2021/04/29 03:38:17;;;;;;;;;;;12.50;99.90;;;;;;5038403;28;20079;-66
2021/04/29 03:40:44;;;;;;;15.63;9.07;;;12.60;99.90;;;;;;5042627;28;19964;-66
2021/04/29 03:43:10;;;;;;;;;;;12.60;99.90;;;;;;5041718;28;20102;-66
2021/04/29 03:45:38;;;;;;;13.70;8.25;;;12.70;99.90;;;;;;5039728;28;19932;-66
2021/04/29 03:48:06;;;;;;;13.88;8.23;;;12.70;99.90;;;;;;5039134;28;20052;-66
2021/04/29 03:50:32;;;;;;;16.85;8.90;;;12.70;99.90;;;;;;5044666;28;20056;-66
2021/04/29 03:52:59;;;;;;;13.15;8.88;;;12.80;99.90;;;;;;5051479;28;20051;-68
2021/04/29 03:55:26;;;;;;;18.10;9.57;;;12.60;99.90;;;;;;5043198;28;20056;-68
2021/04/29 03:57:52;;;;;;;12.18;8.45;;;12.80;99.90;;;;;;5043609;28;20078;-68
2021/04/29 04:00:19;;;;;;;15.88;9.90;;;12.80;99.90;;;;;;5042651;28;20529;-68
2021/04/29 04:02:47;;;;;;;16.60;9.48;;;12.80;99.90;;;;;;5042699;28;20072;-68
2021/04/29 04:05:15;;;;;;;16.10;8.38;;;12.70;99.90;;;;;;5045660;28;20051;-66
2021/04/29 04:07:41;;;;;;;20.00;9.80;;;12.70;99.90;;;;;;5044382;28;20080;-66
2021/04/29 04:10:10;;;;;;;13.95;8.68;;;12.70;99.90;;;;;;5045803;28;20055;-66
2021/04/29 04:12:45;;;;;;;16.52;9.48;;;12.70;99.90;;;;;;5044827;28;20456;-68
2021/04/29 04:15:12;;;;;;;15.10;9.27;;;12.70;99.90;;;;;;5044719;28;20052;-66
2021/04/29 04:17:39;;;;;;;15.80;9.18;;;12.80;99.90;;;;;;5041525;28;20288;-66
2021/04/29 04:20:07;;;;;;;;;;;12.70;99.90;;;;;;5045032;28;20064;-66
2021/04/29 04:22:34;;;;;;;17.95;9.63;;;12.60;99.90;;;;;;5043651;28;20396;-66
2021/04/29 04:25:00;;;;;;;14.32;8.93;;;12.70;99.90;;;;;;5047579;28;20588;-66
2021/04/29 04:27:27;;;;;;;15.50;10.38;;;12.70;99.90;;;;;;5043683;28;20076;-66
2021/04/29 04:29:53;;;;;;;14.30;9.63;;;12.70;99.90;;;;;;5043327;28;20052;-66
2021/04/29 04:32:19;;;;;;;;;;;12.70;99.90;;;;;;5043138;28;20080;-66
2021/04/29 04:34:46;;;;;;;15.63;9.32;;;12.60;99.90;;;;;;5044995;28;19932;-66
2021/04/29 04:37:13;;;;;;;;;;;12.60;99.90;;;;;;5045134;28;20079;-66
2021/04/29 04:39:40;;;;;;;16.30;9.07;;;12.70;99.90;;;;;;5043616;28;19926;-66
2021/04/29 04:42:07;;;;;;;14.18;9.82;;;12.70;99.90;;;;;;5045466;28;20053;-66
2021/04/29 04:44:33;;;;;;;14.20;9.15;;;12.70;99.90;;;;;;5043219;28;20082;-66
2021/04/29 04:47:00;;;;;;;13.25;9.20;;;12.70;99.90;;;;;;5044960;28;20098;-66
2021/04/29 04:49:26;;;;;;;;;;;12.70;99.90;;;;;;5048256;28;20075;-66
2021/04/29 04:51:52;;;;;;;17.70;9.98;;;12.70;99.90;;;;;;5047679;28;19931;-66
2021/04/29 04:54:21;;;;;;;14.82;10.32;;;12.60;99.90;;;;;;5047924;28;20040;-66
2021/04/29 04:56:47;;;;;;;16.42;10.38;;;12.70;99.90;;;;;;5043622;28;20048;-66
2021/04/29 04:59:14;;;;;;;;;;;12.70;99.90;;;;;;5047633;28;20050;-66
2021/04/29 05:01:40;;;;;;;15.18;10.15;;;12.60;99.90;;;;;;5046605;28;19928;-66
2021/04/29 05:04:07;;;;;;;18.52;10.60;;;12.70;99.90;;;;;;5045641;28;20103;-66
2021/04/29 05:06:34;;;;;;;16.42;10.68;;;12.70;99.90;;;;;;5046870;28;20098;-66
2021/04/29 05:09:01;;;;;;;16.95;11.00;;;12.70;99.90;;;;;;5045964;28;20521;-66
2021/04/29 05:11:28;;;;;;;17.83;11.48;;;12.70;99.90;;;;;;5045976;28;20109;-66
2021/04/29 05:13:55;;;;;;;17.23;10.60;;;12.70;99.90;;;;;;5045369;28;20056;-66
2021/04/29 05:16:21;;;;;;;;;;;12.70;99.90;;;;;;5046499;28;20052;-66
2021/04/29 05:18:47;;;;;;;20.17;11.68;;;12.70;99.90;;;;;;5043047;28;19925;-66
2021/04/29 05:21:14;;;;;;;17.83;11.98;;;12.80;99.90;;;;;;5045807;28;20575;-66
2021/04/29 05:23:41;;;;;;;18.08;12.35;;;12.60;99.90;;;;;;5044861;28;20524;-68
2021/04/29 05:26:07;;;;;;;18.33;11.15;;;12.60;99.90;;;;;;5046005;28;20126;-68
2021/04/29 05:28:34;;;;;;;;;;;12.50;99.90;;;;;;5042607;28;20153;-69
2021/04/29 05:31:01;;;;;;;19.42;12.68;;;12.50;99.90;;;;;;5046147;28;19924;-68
2021/04/29 05:33:27;;;;;;;21.70;11.55;;;12.50;99.90;;;;;;5047340;28;20703;-68
2021/04/29 05:35:54;;;;;;;16.77;10.95;;;12.40;99.90;;;;;;5047648;28;20131;-68
2021/04/29 05:38:20;;;;;;;;;;;12.50;99.90;;;;;;5044482;28;20040;-68
2021/04/29 05:40:47;;;;;;;18.50;11.82;;;12.40;99.90;;;;;;5044704;28;19925;-68
2021/04/29 05:43:13;;;;;;;;;;;12.50;99.90;;;;;;5043716;28;20063;-68
2021/04/29 05:45:40;;;;;;;21.25;10.65;;;12.60;99.90;;;;;;5043712;28;19931;-68
2021/04/29 05:48:07;;;;;;;18.48;11.07;;;12.50;99.90;;;;;;5046452;28;20052;-66
2021/04/29 05:50:34;;;;;;;17.67;11.30;;;12.40;99.90;;;;;;5045290;28;20070;-66
2021/04/29 05:53:00;;;;;;;19.35;11.27;;;12.50;99.90;;;;;;5048396;28;20055;-68
2021/04/29 05:55:27;;;;;;;;;;;12.50;99.90;;;;;;5049227;28;20075;-68
2021/04/29 05:57:57;;;;;;;14.68;10.02;;;12.40;99.90;;;;;;5049202;28;19963;-68
2021/04/29 06:00:24;;;;;;;18.00;10.00;;;12.50;99.90;;;;;;5044105;28;20048;-68
2021/04/29 06:02:51;;;;;;;13.98;9.65;;;12.60;99.90;;;;;;5046022;28;20048;-66
2021/04/29 06:05:18;;;;;;;16.42;10.15;;;12.70;99.90;;;;;;5048407;28;20047;-66
2021/04/29 06:07:44;;;;;;;13.70;9.40;;;12.80;99.90;;;;;;5053369;28;20600;-68
2021/04/29 06:10:11;;;;;;;;;;;12.70;99.90;;;;;;5056860;28;20080;-68
2021/04/29 06:12:37;;;;;;;15.40;8.77;;;12.70;99.90;;;;;;5060971;28;19971;-68
2021/04/29 06:15:05;;;;;;;14.18;9.10;;;12.60;99.90;;;;;;5057009;28;20505;-68
2021/04/29 06:17:32;;;;;;;12.00;8.25;;;12.70;99.90;;;;;;5056307;28;20117;-68
2021/04/29 06:19:59;;;;;;;12.73;8.00;;;12.80;99.90;;;;;;5056674;28;20053;-69
2021/04/29 06:22:25;;;;;;;11.30;7.40;;;12.90;99.90;;;;;;5057324;28;20052;-68
2021/04/29 06:24:52;;;;;;;;;;;13.00;99.90;;;;;;5057956;28;20301;-66
2021/04/29 06:27:18;;;;;;;10.63;7.35;;;13.20;99.90;;;;;;5056667;28;19928;-69
2021/04/29 06:29:44;;;;;;;;;;;13.10;99.90;;;;;;5057959;28;20053;-68
2021/04/29 06:32:11;;;;;;;10.93;6.35;;;13.20;99.90;;;;;;5054200;28;19920;-69
2021/04/29 06:34:38;;;;;;;;;;;13.30;99.90;;;;;;5057120;28;20084;-68
2021/04/29 06:37:05;;;;;;;9.15;5.80;;;13.20;99.90;;;;;;5056126;28;19946;-68
2021/04/29 06:39:32;;;;;;;9.73;5.68;;;13.10;99.90;;;;;;5058558;28;20143;-68
2021/04/29 06:41:58;;;;;;;;;;;13.10;99.90;;;;;;5060640;28;20103;-68
2021/04/29 06:44:24;;;;;;;9.93;5.40;;;13.20;99.90;;;;;;5056711;28;19974;-69
2021/04/29 06:46:51;;;;;;;8.95;5.13;;;13.30;99.90;;;;;;5049710;28;20056;-68
2021/04/29 06:49:17;;;;;;;8.75;5.38;;;13.40;99.90;;;;;;5048674;28;20048;-69
2021/04/29 06:51:44;;;;;;;;;;;13.70;99.90;;;;;;5050906;28;20505;-66
2021/04/29 06:54:11;;;;;;;11.52;5.25;;;13.80;99.90;;;;;;5045389;28;19935;-66
2021/04/29 06:56:38;;;;;;;8.57;5.35;;;13.90;99.90;;;;;;5048685;28;20102;-66
2021/04/29 06:59:05;;;;;;;9.35;5.07;;;13.90;99.90;;;;;;5044806;28;20055;-66
2021/04/29 07:01:32;;;;;;;9.52;5.55;;;13.80;99.90;;;;;;5044910;28;20048;-66
2021/04/29 07:03:59;;;;;;;9.65;5.40;;;13.80;99.90;;;;;;5044729;28;20447;-66
2021/04/29 07:06:26;;;;;;;10.45;5.93;;;14.10;99.90;;;;;;5045511;28;20101;-66
2021/04/29 07:08:53;;;;;;;7.80;4.65;;;14.30;99.90;;;;;;5044451;28;20063;-66
2021/04/29 07:11:20;;;;;;;9.82;5.28;;;14.40;99.90;;;;;;5047815;28;20044;-66
2021/04/29 07:13:47;;;;;;;7.53;4.45;;;14.40;99.90;;;;;;5039393;28;20047;-66
2021/04/29 07:16:14;;;;;;;12.20;5.05;;;14.50;99.90;;;;;;5043974;28;20047;-66
2021/04/29 07:18:40;;;;;;;7.63;4.00;;;14.60;99.90;;;;;;5034167;28;20142;-66
2021/04/29 07:21:07;;;;;;;10.98;4.93;;;14.70;99.90;;;;;;5039205;28;20946;-66
2021/04/29 07:23:33;;;;;;;;;;;14.80;99.90;;;;;;5036668;28;20056;-66
2021/04/29 07:26:00;;;;;;;9.27;4.60;;;14.80;99.90;;;;;;5042603;28;20339;-66
2021/04/29 07:28:27;;;;;;;9.45;4.80;;;14.50;99.90;;;;;;5042506;28;20091;-66
2021/04/29 07:30:54;;;;;;;9.10;4.50;;;14.60;99.90;;;;;;5037610;28;20566;-66
2021/04/29 07:33:21;;;;;;;7.70;4.18;;;14.80;99.90;;;;;;5042651;28;20078;-66
2021/04/29 07:35:47;;;;;;;10.43;5.47;;;15.20;99.90;;;;;;5043508;28;20134;-66
2021/04/29 07:38:14;;;;;;;10.07;4.90;;;15.20;99.90;;;;;;5045768;28;20070;-66
2021/04/29 07:40:41;;;;;;;8.68;4.88;;;14.90;99.90;;;;;;5044649;28;20045;-66
2021/04/29 07:43:08;;;;;;;10.48;4.65;;;14.60;99.90;;;;;;5043840;28;21464;-66
2021/04/29 07:45:35;;;;;;;8.15;4.80;;;14.60;99.90;;;;;;5047197;28;20093;-66
2021/04/29 07:48:02;;;;;;;8.02;4.43;;;14.70;99.90;;;;;;5043230;28;20048;-66
2021/04/29 07:50:31;;;;;;;8.43;4.40;;;14.70;99.90;;;;;;5046449;28;20048;-66
2021/04/29 07:52:57;;;;;;;9.20;4.15;;;14.50;99.90;;;;;;5043372;28;20059;-66
2021/04/29 07:55:24;;;;;;;10.20;4.60;;;14.90;99.90;;;;;;5043319;28;20139;-66
2021/04/29 07:57:51;;;;;;;8.02;4.05;;;15.20;99.90;;;;;;5042223;28;20188;-66
2021/04/29 08:00:18;;;;;;;7.97;4.30;;;15.80;99.90;;;;;;5045738;28;20051;-68
2021/04/29 08:02:46;;;;;;;7.70;4.32;;;16.00;99.90;;;;;;5044314;28;20080;-66
2021/04/29 08:05:13;;;;;;;10.88;4.45;;;16.20;99.90;;;;;;5042485;28;20532;-66
2021/04/29 08:07:40;;;;;;;7.75;4.10;;;15.70;99.90;;;;;;5042443;28;20074;-66
2021/04/29 08:10:09;;;;;;;14.38;4.47;;;15.80;99.90;;;;;;5044442;28;20132;-66
2021/04/29 08:12:35;;;;;;;7.72;3.78;;;15.80;99.90;;;;;;5042294;28;20089;-66
2021/04/29 08:15:03;;;;;;;6.80;3.60;;;15.80;99.90;;;;;;5042785;28;20577;-66
2021/04/29 08:17:30;;;;;;;7.10;3.67;;;16.10;99.90;;;;;;5040400;28;20466;-66
2021/04/29 08:19:58;;;;;;;8.20;4.28;;;16.30;99.90;;;;;;5042239;28;20048;-69
2021/04/29 08:22:26;;;;;;;7.75;4.07;;;16.30;99.90;;;;;;5047682;28;20098;-69
2021/04/29 08:24:55;;;;;;;9.00;4.90;;;16.10;99.90;;;;;;5046279;28;21607;-69
2021/04/29 08:27:22;;;;;;;8.90;5.10;;;15.90;99.90;;;;;;5042617;28;20064;-69
2021/04/29 08:29:49;;;;;;;9.80;4.60;;;15.70;99.90;;;;;;5041850;28;20044;-66
2021/04/29 08:32:15;;;;;;;8.13;3.85;;;15.90;99.90;;;;;;5045532;28;20508;-66
2021/04/29 08:34:42;;;;;;;9.57;4.45;;;16.40;99.90;;;;;;5044894;28;21520;-66
2021/04/29 08:37:10;;;;;;;11.20;4.28;;;16.60;99.90;;;;;;5046748;28;20135;-66
2021/04/29 08:39:36;;;;;;;7.22;3.58;;;17.10;99.90;;;;;;5047785;28;20122;-66
2021/04/29 08:42:03;;;;;;;6.88;3.63;;;17.10;99.90;;;;;;5044237;28;20400;-67
2021/04/29 08:44:30;;;;;;;7.75;3.50;;;16.60;99.90;;;;;;5045470;28;20048;-67
2021/04/29 08:46:57;;;;;;;7.32;4.03;;;15.70;99.90;;;;;;5039094;28;20075;-67
2021/04/29 08:49:23;;;;;;;6.32;3.35;;;15.50;99.90;;;;;;5041031;28;20091;-66
2021/04/29 08:51:51;;;;;;;7.95;3.83;;;15.40;99.90;;;;;;5038754;28;20052;-67
2021/04/29 08:54:19;;;;;;;7.95;3.35;;;15.40;99.90;;;;;;5033840;28;20059;-67
2021/04/29 08:56:46;;;;;;;5.95;3.35;;;15.30;99.90;;;;;;5041196;28;20064;-67
2021/04/29 08:59:12;;;;;;;8.90;3.78;;;15.40;99.90;;;;;;5039613;28;20079;-67
2021/04/29 09:01:40;;;;;;;7.53;2.92;;;16.00;99.90;;;;;;5042176;28;20131;-67
2021/04/29 09:04:12;;;;;;;7.38;3.00;;;16.60;99.90;;;;;;5041496;28;20074;-70
2021/04/29 09:06:39;;;;;;;8.75;3.30;;;17.10;99.90;;;;;;5042693;28;20803;-70
2021/04/29 09:09:06;;;;;;;5.53;2.90;;;16.80;99.90;;;;;;5039601;28;20052;-72
2021/04/29 09:11:33;;;;;;;6.15;2.80;;;16.60;99.90;;;;;;5041127;28;20837;-69
2021/04/29 09:14:02;;;;;;;5.95;2.30;;;16.30;99.90;;;;;;5034135;28;20098;-69
2021/04/29 09:16:38;;;;;;;5.47;2.65;;;16.40;99.90;;;;;;5041704;28;20721;-69
2021/04/29 09:19:05;;;;;;;7.95;2.70;;;17.10;99.90;;;;;;5034908;28;20066;-69
2021/04/29 09:21:33;;;;;;;6.10;2.88;;;17.50;99.90;;;;;;5045594;28;20282;-69
2021/04/29 09:24:00;;;;;;;6.72;2.25;;;17.80;99.90;;;;;;5040991;28;20052;-69
2021/04/29 09:26:34;;;;;;;4.55;2.35;;;18.00;99.90;;;;;;5038609;28;20052;-69
2021/04/29 09:29:08;;;;;;;4.22;2.10;;;17.70;99.90;;;;;;5040710;28;20099;-69
2021/04/29 09:31:39;;;;;;;4.82;2.42;;;17.70;99.90;;;;;;5040985;28;20503;-69
2021/04/29 09:34:07;;;;;;;9.13;2.60;;;17.10;99.90;;;;;;5038786;28;20095;-69
2021/04/29 09:36:34;;;;;;;4.47;2.20;;;17.70;99.90;;;;;;5042687;28;20102;-71
2021/04/29 09:39:04;;;;;;;3.97;2.03;;;18.80;99.90;;;;;;5045958;28;20087;-71
2021/04/29 09:41:32;;;;;;;5.63;2.30;;;18.30;99.90;;;;;;5044343;28;20055;-71
2021/04/29 09:44:02;;;;;;;3.20;1.90;;;19.00;99.90;;;;;;5041489;28;20612;-72
2021/04/29 09:46:39;;;;;;;4.82;2.05;;;18.60;99.90;;;;;;5042533;28;20063;-71
2021/04/29 09:49:20;;;;;;;4.22;2.10;;;17.50;99.90;;;;;;5043168;28;20554;-69
2021/04/29 09:51:47;;;;;;;7.60;2.20;;;17.00;99.90;;;;;;5042949;28;20052;-69
2021/04/29 09:54:24;;;;;;;5.22;2.70;;;18.20;99.90;;;;;;5043608;28;20052;-69
2021/04/29 09:56:58;;;;;;;4.68;2.20;;;19.70;99.90;;;;;;5043720;28;20441;-72
2021/04/29 09:59:27;;;;;;;5.50;2.53;;;20.90;99.90;;;;;;5045527;28;21038;-72
2021/04/29 10:01:54;;;;;;;5.40;2.58;;;21.30;99.90;;;;;;5044783;28;20412;-71
2021/04/29 10:04:22;;;;;;;6.07;2.30;;;20.40;99.90;;;;;;5045466;28;20176;-71
2021/04/29 10:06:49;;;;;;;4.95;2.42;;;20.40;99.90;;;;;;5041695;28;20044;-72
2021/04/29 10:09:16;;;;;;;4.50;1.98;;;19.80;99.90;;;;;;5039626;28;20048;-71
2021/04/29 10:11:45;;;;;;;5.45;2.50;;;19.90;99.90;;;;;;5043027;28;20053;-71
2021/04/29 10:14:12;;;;;;;6.90;2.38;;;20.30;99.90;;;;;;5042233;28;20388;-72
2021/04/29 10:16:40;;;;;;;6.57;2.63;;;20.00;99.30;;;;;;5038224;28;20090;-72
2021/04/29 10:19:06;;;;;;;6.30;2.17;;;20.30;99.40;;;;;;5040891;28;20214;-72
2021/04/29 10:21:34;;;;;;;4.18;2.30;;;20.90;98.30;;;;;;5043574;28;20051;-72
2021/04/29 10:24:01;;;;;;;6.47;2.42;;;21.10;97.90;;;;;;5041563;28;20048;-71
2021/04/29 10:26:30;;;;;;;6.00;2.58;;;21.90;96.70;;;;;;5043004;28;20079;-72
2021/04/29 10:28:59;;;;;;;5.95;2.30;;;22.20;94.40;;;;;;5044284;28;20960;-72
2021/04/29 10:31:27;;;;;;;8.77;2.58;;;21.90;92.80;;;;;;5043511;28;20126;-72
2021/04/29 10:33:57;;;;;;;8.88;2.78;;;21.40;93.20;;;;;;5036353;28;20055;-72
2021/04/29 10:36:35;;;;;;;4.93;2.60;;;20.60;92.90;;;;;;5042537;28;20095;-72
2021/04/29 10:39:13;;;;;;;4.82;2.65;;;20.90;92.30;;;;;;5033048;28;20052;-70
2021/04/29 10:41:40;;;;;;;6.93;2.78;;;20.70;92.60;;;;;;5039711;28;20044;-71
2021/04/29 10:44:11;;;;;;;5.22;2.20;;;20.10;92.10;;;;;;5038273;28;20044;-69
2021/04/29 10:46:39;;;;;;;5.80;2.70;;;20.60;92.40;;;;;;5043329;28;20044;-66
2021/04/29 10:49:07;;;;;;;5.28;2.30;;;20.50;92.40;;;;;;5038978;28;20048;-67
2021/04/29 10:51:35;;;;;;;6.97;2.60;;;19.80;94.40;;;;;;5041272;28;20094;-68
2021/04/29 10:54:10;;;;;;;5.57;2.42;;;19.70;95.40;;;;;;5036828;28;20044;-74
2021/04/29 10:56:37;;;;;;;6.90;2.92;;;20.20;93.80;;;;;;5039518;28;20821;-75
2021/04/29 10:59:13;;;;;;;6.32;2.60;;;20.70;93.30;;;;;;5041888;28;20048;-73
2021/04/29 11:01:42;;;;;;;6.00;3.10;;;20.40;92.70;;;;;;5042908;28;20553;-75
2021/04/29 11:04:18;;;;;;;13.68;2.80;;;20.70;92.30;;;;;;5043153;28;20446;-72
2021/04/29 11:06:45;;;;;;;5.65;2.90;;;20.60;91.70;;;;;;5039869;28;20048;-71
2021/04/29 11:09:20;;;;;;;5.45;2.80;;;20.90;90.90;;;;;;5042447;28;20044;-71
2021/04/29 11:11:58;;;;;;;8.60;3.35;;;20.80;88.60;;;;;;5043754;28;20048;-71
2021/04/29 11:14:25;;;;;;;7.07;2.95;;;20.80;90.20;;;;;;5046132;28;20068;-71
2021/04/29 11:16:53;;;;;;;6.32;2.38;;;21.70;88.70;;;;;;5042826;28;20044;-71
2021/04/29 11:19:37;;;;;;;5.60;2.63;;;21.50;88.60;;;;;;5042935;28;20056;-71
2021/04/29 11:22:04;;;;;;;5.57;2.70;;;21.00;89.40;;;;;;5042790;28;20055;-71
2021/04/29 11:24:40;;;;;;;6.53;3.25;;;20.40;89.70;;;;;;5043403;28;20060;-71
2021/04/29 11:27:21;;;;;;;7.20;2.60;;;20.10;90.40;;;;;;5040771;28;21300;-71
2021/04/29 11:29:48;;;;;;;8.07;2.80;;;20.30;89.10;;;;;;5043397;28;20135;-71
2021/04/29 11:32:15;;;;;;;7.47;3.80;;;19.80;90.00;;;;;;5044786;28;20048;-71
2021/04/29 11:34:44;;;;;;;7.68;3.38;;;19.20;91.30;;;;;;5043420;28;20087;-71
2021/04/29 11:37:11;;;;;;;5.63;2.80;;;18.80;92.30;;;;;;5044366;28;20202;-70
2021/04/29 11:39:38;;;;;;;9.02;3.65;;;18.50;93.40;;;;;;5044389;28;20056;-68
2021/04/29 11:42:05;;;;;;;8.90;3.55;;;18.00;92.70;;;;;;5044585;28;20061;-68
2021/04/29 11:44:32;;;;;;;8.90;3.47;;;17.70;93.50;;;;;;5044383;28;20105;-69
2021/04/29 11:47:13;;;;;;;5.82;3.40;;;17.60;94.20;;;;;;5041652;28;20059;-69
2021/04/29 11:49:39;;;;;;;9.30;3.95;;;17.70;95.90;;;;;;5045245;28;20106;-67
2021/04/29 11:52:07;;;;;;;5.90;3.70;;;17.20;96.20;;;;;;5042092;28;20848;-65
2021/04/29 11:54:33;;;;;;;8.88;3.92;;;17.10;96.40;;;;;;5042532;28;20091;-65
2021/04/29 11:57:02;;;;;;;8.13;4.05;;;16.80;96.80;;;;;;5042076;28;20562;-64
2021/04/29 11:59:33;;;;;;;7.45;4.25;;;16.60;97.60;;;;;;5044173;28;20409;-66
2021/04/29 12:02:02;;;;;;;7.50;4.00;;;16.40;98.70;;;;;;5042577;28;20040;-66
2021/04/29 12:04:29;;;;;;;8.18;4.20;;;16.50;99.40;;;;;;5042003;28;20647;-66
2021/04/29 12:06:57;;;;;;;9.02;4.53;;;16.20;99.90;;;;;;5042688;28;20129;-66
2021/04/29 12:09:26;;;;;;;8.93;4.50;;;16.20;99.90;;;;;;5044953;28;20135;-66
2021/04/29 12:11:53;;;;;;;8.27;4.10;;;15.90;99.90;;;;;;5044443;28;20048;-66
2021/04/29 12:14:24;;;;;;;8.45;4.45;;;15.90;99.90;;;;;;5040913;28;20048;-66
2021/04/29 12:16:54;;;;;;;9.70;4.85;;;15.70;99.90;;;;;;5043968;28;20060;-66
2021/04/29 12:19:25;;;;;;;8.82;4.53;;;15.70;99.90;;;;;;5044850;28;20044;-66
2021/04/29 12:21:52;;;;;;;9.52;5.22;;;15.50;99.90;;;;;;5040707;28;20052;-66
2021/04/29 12:24:19;;;;;;;5.55;2.17;;;15.50;99.90;;;;;;5039976;28;20044;-66
2021/04/29 12:26:47;;;;;;;9.00;3.17;;;14.80;99.90;;;;;;5045643;28;20505;-68
2021/04/29 12:29:15;;;;;;;6.47;2.90;;;14.30;99.90;;;;;;5047901;28;20385;-68
2021/04/29 12:31:52;;;;;;;9.02;3.53;;;14.20;99.90;;;;;;5044735;28;20080;-68
2021/04/29 12:34:20;;;;;;;5.50;3.00;;;14.20;99.90;;;;;;5045844;28;20053;-68
2021/04/29 12:36:51;;;;;;;6.93;3.67;;;13.90;99.90;;;;;;5045953;28;20060;-68
2021/04/29 12:39:20;;;;;;;8.18;3.08;;;13.60;99.90;;;;;;5043629;28;20574;-68
2021/04/29 12:41:53;;;;;;;8.77;4.30;;;12.90;99.90;;;;;;5040976;28;20052;-68
2021/04/29 12:44:30;;;;;;;13.23;4.68;;;12.80;99.90;;;;;;5044020;28;20516;-68
2021/04/29 12:47:00;;;;;;;8.13;3.78;;;12.50;99.90;;;;;;5041276;28;20559;-69
2021/04/29 12:49:27;;;;;;;7.40;3.63;;;12.50;99.90;;;;;;5040729;28;20056;-69
2021/04/29 12:52:06;;;;;;;12.93;4.68;;;12.10;99.90;;;;;;5044086;28;20052;-69